sensor_id;sensor_type;location;lat;lon;timestamp;temperature;humidity
36654;DHT22;22650;49.350;20.898;2024-01-30T00:00:40;-2.80;99.90
36654;DHT22;22650;49.350;20.898;2024-01-30T00:03:14;-2.80;99.90
36654;DHT22;22650;49.350;20.898;2024-01-30T00:05:48;-2.80;99.90
36654;DHT22;22650;49.350;20.898;2024-01-30T00:08:21;-2.90;99.90
36654;DHT22;22650;49.350;20.898;2024-01-30T00:10:55;-2.90;99.90
36654;DHT22;22650;49.350;20.898;2024-01-30T00:13:29;-2.90;99.90
36654;DHT22;22650;49.350;20.898;2024-01-30T00:16:04;-2.90;99.90
36654;DHT22;22650;49.350;20.898;2024-01-30T00:18:38;-2.90;99.90
36654;DHT22;22650;49.350;20.898;2024-01-30T00:21:12;-2.90;99.90
36654;DHT22;22650;49.350;20.898;2024-01-30T00:23:45;-3.00;99.90
36654;DHT22;22650;49.350;20.898;2024-01-30T00:26:19;-3.00;99.90
36654;DHT22;22650;49.350;20.898;2024-01-30T00:28:53;-3.00;99.90
36654;DHT22;22650;49.350;20.898;2024-01-30T00:31:28;-3.00;99.90
36654;DHT22;22650;49.350;20.898;2024-01-30T00:34:01;-3.00;99.90
36654;DHT22;22650;49.350;20.898;2024-01-30T00:36:35;-3.10;99.90
36654;DHT22;22650;49.350;20.898;2024-01-30T00:39:09;-3.10;99.90
36654;DHT22;22650;49.350;20.898;2024-01-30T00:41:43;-3.00;99.90
36654;DHT22;22650;49.350;20.898;2024-01-30T00:44:17;-3.10;99.90
36654;DHT22;22650;49.350;20.898;2024-01-30T00:46:52;-3.10;99.90
36654;DHT22;22650;49.350;20.898;2024-01-30T00:49:26;-3.00;99.90
36654;DHT22;22650;49.350;20.898;2024-01-30T00:51:59;-3.00;99.90
36654;DHT22;22650;49.350;20.898;2024-01-30T00:54:33;-3.00;99.90
36654;DHT22;22650;49.350;20.898;2024-01-30T00:57:07;-3.00;99.90
36654;DHT22;22650;49.350;20.898;2024-01-30T00:59:41;-3.00;99.90
36654;DHT22;22650;49.350;20.898;2024-01-30T01:02:16;-3.00;99.90
36654;DHT22;22650;49.350;20.898;2024-01-30T01:04:50;-3.00;99.90
36654;DHT22;22650;49.350;20.898;2024-01-30T01:07:24;-2.90;99.90
36654;DHT22;22650;49.350;20.898;2024-01-30T01:09:57;-2.90;99.90
36654;DHT22;22650;49.350;20.898;2024-01-30T01:12:31;-2.90;99.90
36654;DHT22;22650;49.350;20.898;2024-01-30T01:15:06;-2.90;99.90
36654;DHT22;22650;49.350;20.898;2024-01-30T01:17:43;-2.90;99.90
36654;DHT22;22650;49.350;20.898;2024-01-30T01:20:17;-2.80;99.90
36654;DHT22;22650;49.350;20.898;2024-01-30T01:22:50;-2.80;99.90
36654;DHT22;22650;49.350;20.898;2024-01-30T01:25:24;-2.80;99.90
36654;DHT22;22650;49.350;20.898;2024-01-30T01:27:58;-2.80;99.90
36654;DHT22;22650;49.350;20.898;2024-01-30T01:30:33;-2.70;99.90
36654;DHT22;22650;49.350;20.898;2024-01-30T01:33:10;-2.70;99.90
36654;DHT22;22650;49.350;20.898;2024-01-30T01:35:46;-2.70;99.90
36654;DHT22;22650;49.350;20.898;2024-01-30T01:38:20;-2.70;99.90
36654;DHT22;22650;49.350;20.898;2024-01-30T01:40:53;-2.60;99.90
36654;DHT22;22650;49.350;20.898;2024-01-30T01:43:27;-2.60;99.90
36654;DHT22;22650;49.350;20.898;2024-01-30T01:46:02;-2.60;99.90
36654;DHT22;22650;49.350;20.898;2024-01-30T01:48:37;-2.50;99.90
36654;DHT22;22650;49.350;20.898;2024-01-30T01:51:12;-2.50;99.90
36654;DHT22;22650;49.350;20.898;2024-01-30T01:53:46;-2.50;99.90
36654;DHT22;22650;49.350;20.898;2024-01-30T01:56:20;-2.40;99.90
36654;DHT22;22650;49.350;20.898;2024-01-30T01:58:55;-2.40;99.90
36654;DHT22;22650;49.350;20.898;2024-01-30T02:01:29;-2.40;99.90
36654;DHT22;22650;49.350;20.898;2024-01-30T02:04:04;-2.40;99.90
36654;DHT22;22650;49.350;20.898;2024-01-30T02:06:38;-2.30;99.90
36654;DHT22;22650;49.350;20.898;2024-01-30T02:09:12;-2.30;99.90
36654;DHT22;22650;49.350;20.898;2024-01-30T02:11:45;-2.30;99.90
36654;DHT22;22650;49.350;20.898;2024-01-30T02:14:19;-2.30;99.90
36654;DHT22;22650;49.350;20.898;2024-01-30T02:16:52;-2.20;99.90
36654;DHT22;22650;49.350;20.898;2024-01-30T02:19:27;-2.20;99.90
36654;DHT22;22650;49.350;20.898;2024-01-30T02:22:03;-2.20;99.90
36654;DHT22;22650;49.350;20.898;2024-01-30T02:24:37;-2.20;99.90
36654;DHT22;22650;49.350;20.898;2024-01-30T02:27:11;-2.10;99.90
36654;DHT22;22650;49.350;20.898;2024-01-30T02:29:45;-2.10;99.90
36654;DHT22;22650;49.350;20.898;2024-01-30T02:32:18;-2.10;99.90
36654;DHT22;22650;49.350;20.898;2024-01-30T02:34:52;-2.10;99.90
36654;DHT22;22650;49.350;20.898;2024-01-30T02:37:27;-2.10;99.90
36654;DHT22;22650;49.350;20.898;2024-01-30T02:40:01;-2.00;99.90
36654;DHT22;22650;49.350;20.898;2024-01-30T02:42:34;-2.00;99.90
36654;DHT22;22650;49.350;20.898;2024-01-30T02:45:09;-2.00;99.90
36654;DHT22;22650;49.350;20.898;2024-01-30T02:47:43;-2.00;99.90
36654;DHT22;22650;49.350;20.898;2024-01-30T02:50:17;-2.00;99.90
36654;DHT22;22650;49.350;20.898;2024-01-30T02:52:52;-1.90;99.90
36654;DHT22;22650;49.350;20.898;2024-01-30T02:55:25;-2.00;99.90
36654;DHT22;22650;49.350;20.898;2024-01-30T02:57:59;-1.90;99.90
36654;DHT22;22650;49.350;20.898;2024-01-30T03:00:33;-1.90;99.90
36654;DHT22;22650;49.350;20.898;2024-01-30T03:03:07;-1.90;99.90
36654;DHT22;22650;49.350;20.898;2024-01-30T03:05:40;-1.90;99.90
36654;DHT22;22650;49.350;20.898;2024-01-30T03:08:15;-1.80;99.90
36654;DHT22;22650;49.350;20.898;2024-01-30T03:10:49;-1.80;99.90
36654;DHT22;22650;49.350;20.898;2024-01-30T03:13:23;-1.80;99.90
36654;DHT22;22650;49.350;20.898;2024-01-30T03:15:57;-1.80;99.90
36654;DHT22;22650;49.350;20.898;2024-01-30T03:18:30;-1.70;99.90
36654;DHT22;22650;49.350;20.898;2024-01-30T03:21:04;-1.70;99.90
36654;DHT22;22650;49.350;20.898;2024-01-30T03:23:39;-1.70;99.90
36654;DHT22;22650;49.350;20.898;2024-01-30T03:26:13;-1.70;99.90
36654;DHT22;22650;49.350;20.898;2024-01-30T03:28:47;-1.60;99.90
36654;DHT22;22650;49.350;20.898;2024-01-30T03:31:21;-1.60;99.90
36654;DHT22;22650;49.350;20.898;2024-01-30T03:33:55;-1.60;99.90
36654;DHT22;22650;49.350;20.898;2024-01-30T03:36:28;-1.60;99.90
36654;DHT22;22650;49.350;20.898;2024-01-30T03:39:06;-1.60;99.90
36654;DHT22;22650;49.350;20.898;2024-01-30T03:41:42;-1.60;99.90
36654;DHT22;22650;49.350;20.898;2024-01-30T03:44:16;-1.60;99.90
36654;DHT22;22650;49.350;20.898;2024-01-30T03:46:50;-1.50;99.90
36654;DHT22;22650;49.350;20.898;2024-01-30T03:49:24;-1.50;99.90
36654;DHT22;22650;49.350;20.898;2024-01-30T03:51:57;-1.50;99.90
36654;DHT22;22650;49.350;20.898;2024-01-30T03:54:33;-1.50;99.90
36654;DHT22;22650;49.350;20.898;2024-01-30T03:57:06;-1.50;99.90
36654;DHT22;22650;49.350;20.898;2024-01-30T03:59:42;-1.50;99.90
36654;DHT22;22650;49.350;20.898;2024-01-30T04:02:15;-1.50;99.90
36654;DHT22;22650;49.350;20.898;2024-01-30T04:04:50;-1.40;99.90
36654;DHT22;22650;49.350;20.898;2024-01-30T04:07:24;-1.40;99.90
36654;DHT22;22650;49.350;20.898;2024-01-30T04:09:59;-1.40;99.90
36654;DHT22;22650;49.350;20.898;2024-01-30T04:12:33;-1.50;99.90
36654;DHT22;22650;49.350;20.898;2024-01-30T04:15:06;-1.40;99.90
36654;DHT22;22650;49.350;20.898;2024-01-30T04:17:40;-1.40;99.90
36654;DHT22;22650;49.350;20.898;2024-01-30T04:20:14;-1.40;99.90
36654;DHT22;22650;49.350;20.898;2024-01-30T04:22:48;-1.40;99.90
36654;DHT22;22650;49.350;20.898;2024-01-30T04:25:24;-1.40;99.90
36654;DHT22;22650;49.350;20.898;2024-01-30T04:27:57;-1.40;99.90
36654;DHT22;22650;49.350;20.898;2024-01-30T04:30:31;-1.40;99.90
36654;DHT22;22650;49.350;20.898;2024-01-30T04:33:05;-1.40;99.90
36654;DHT22;22650;49.350;20.898;2024-01-30T04:35:38;-1.30;99.90
36654;DHT22;22650;49.350;20.898;2024-01-30T04:38:12;-1.40;99.90
36654;DHT22;22650;49.350;20.898;2024-01-30T04:40:48;-1.30;99.90
36654;DHT22;22650;49.350;20.898;2024-01-30T04:43:21;-1.40;99.90
36654;DHT22;22650;49.350;20.898;2024-01-30T04:45:55;-1.30;99.90
36654;DHT22;22650;49.350;20.898;2024-01-30T04:48:29;-1.30;99.90
36654;DHT22;22650;49.350;20.898;2024-01-30T04:51:02;-1.30;99.90
36654;DHT22;22650;49.350;20.898;2024-01-30T04:53:36;-1.30;99.90
36654;DHT22;22650;49.350;20.898;2024-01-30T04:56:13;-1.30;99.90
36654;DHT22;22650;49.350;20.898;2024-01-30T04:58:47;-1.30;99.90
36654;DHT22;22650;49.350;20.898;2024-01-30T05:01:20;-1.30;99.90
36654;DHT22;22650;49.350;20.898;2024-01-30T05:03:54;-1.30;99.90
36654;DHT22;22650;49.350;20.898;2024-01-30T05:06:28;-1.30;99.90
36654;DHT22;22650;49.350;20.898;2024-01-30T05:09:02;-1.30;99.90
36654;DHT22;22650;49.350;20.898;2024-01-30T05:11:38;-1.20;99.90
36654;DHT22;22650;49.350;20.898;2024-01-30T05:14:12;-1.20;99.90
36654;DHT22;22650;49.350;20.898;2024-01-30T05:16:47;-1.30;99.90
36654;DHT22;22650;49.350;20.898;2024-01-30T05:19:20;-1.30;99.90
36654;DHT22;22650;49.350;20.898;2024-01-30T05:21:55;-1.30;99.90
36654;DHT22;22650;49.350;20.898;2024-01-30T05:24:29;-1.30;99.90
36654;DHT22;22650;49.350;20.898;2024-01-30T05:27:04;-1.30;99.90
36654;DHT22;22650;49.350;20.898;2024-01-30T05:29:38;-1.40;99.90
36654;DHT22;22650;49.350;20.898;2024-01-30T05:32:11;-1.40;99.90
36654;DHT22;22650;49.350;20.898;2024-01-30T05:34:45;-1.40;99.90
36654;DHT22;22650;49.350;20.898;2024-01-30T05:37:19;-1.40;99.90
36654;DHT22;22650;49.350;20.898;2024-01-30T05:39:52;-1.40;99.90
36654;DHT22;22650;49.350;20.898;2024-01-30T05:42:27;-1.50;99.90
36654;DHT22;22650;49.350;20.898;2024-01-30T05:45:01;-1.50;99.90
36654;DHT22;22650;49.350;20.898;2024-01-30T05:47:35;-1.50;99.90
36654;DHT22;22650;49.350;20.898;2024-01-30T05:50:09;-1.50;99.90
36654;DHT22;22650;49.350;20.898;2024-01-30T05:52:43;-1.60;99.90
36654;DHT22;22650;49.350;20.898;2024-01-30T05:55:16;-1.60;99.90
36654;DHT22;22650;49.350;20.898;2024-01-30T05:57:51;-1.60;99.90
36654;DHT22;22650;49.350;20.898;2024-01-30T06:00:25;-1.60;99.90
36654;DHT22;22650;49.350;20.898;2024-01-30T06:02:59;-1.70;99.90
36654;DHT22;22650;49.350;20.898;2024-01-30T06:05:32;-1.60;99.90
36654;DHT22;22650;49.350;20.898;2024-01-30T06:08:06;-1.70;99.90
36654;DHT22;22650;49.350;20.898;2024-01-30T06:10:40;-1.60;99.90
36654;DHT22;22650;49.350;20.898;2024-01-30T06:13:15;-1.60;99.90
36654;DHT22;22650;49.350;20.898;2024-01-30T06:15:49;-1.60;99.90
36654;DHT22;22650;49.350;20.898;2024-01-30T06:18:23;-1.70;99.90
36654;DHT22;22650;49.350;20.898;2024-01-30T06:20:57;-1.70;99.90
36654;DHT22;22650;49.350;20.898;2024-01-30T06:23:30;-1.70;99.90
36654;DHT22;22650;49.350;20.898;2024-01-30T06:26:04;-1.70;99.90
36654;DHT22;22650;49.350;20.898;2024-01-30T06:28:39;-1.70;99.90
36654;DHT22;22650;49.350;20.898;2024-01-30T06:31:13;-1.70;99.90
36654;DHT22;22650;49.350;20.898;2024-01-30T06:33:47;-1.70;99.90
36654;DHT22;22650;49.350;20.898;2024-01-30T06:36:21;-1.80;99.90
36654;DHT22;22650;49.350;20.898;2024-01-30T06:38:54;-1.80;99.90
36654;DHT22;22650;49.350;20.898;2024-01-30T06:41:28;-1.80;99.90
36654;DHT22;22650;49.350;20.898;2024-01-30T06:44:04;-1.80;99.90
36654;DHT22;22650;49.350;20.898;2024-01-30T06:46:38;-1.80;99.90
36654;DHT22;22650;49.350;20.898;2024-01-30T06:49:12;-1.70;99.90
36654;DHT22;22650;49.350;20.898;2024-01-30T06:51:46;-1.70;99.90
36654;DHT22;22650;49.350;20.898;2024-01-30T06:54:20;-1.70;99.90
36654;DHT22;22650;49.350;20.898;2024-01-30T06:56:53;-1.70;99.90
36654;DHT22;22650;49.350;20.898;2024-01-30T06:59:28;-1.70;99.90
36654;DHT22;22650;49.350;20.898;2024-01-30T07:02:02;-1.70;99.90
36654;DHT22;22650;49.350;20.898;2024-01-30T07:04:36;-1.60;99.90
36654;DHT22;22650;49.350;20.898;2024-01-30T07:07:16;-1.60;99.90
36654;DHT22;22650;49.350;20.898;2024-01-30T07:09:50;-1.60;99.90
36654;DHT22;22650;49.350;20.898;2024-01-30T07:12:30;-1.50;99.90
36654;DHT22;22650;49.350;20.898;2024-01-30T07:15:06;-1.50;99.90
36654;DHT22;22650;49.350;20.898;2024-01-30T07:17:41;-1.50;99.90
36654;DHT22;22650;49.350;20.898;2024-01-30T07:20:15;-1.50;99.90
36654;DHT22;22650;49.350;20.898;2024-01-30T07:22:49;-1.40;99.90
36654;DHT22;22650;49.350;20.898;2024-01-30T07:25:24;-1.30;99.90
36654;DHT22;22650;49.350;20.898;2024-01-30T07:27:59;-1.30;99.90
36654;DHT22;22650;49.350;20.898;2024-01-30T07:30:34;-1.20;99.90
36654;DHT22;22650;49.350;20.898;2024-01-30T07:33:08;-1.20;99.90
36654;DHT22;22650;49.350;20.898;2024-01-30T07:35:42;-1.20;99.90
36654;DHT22;22650;49.350;20.898;2024-01-30T07:38:15;-1.10;99.90
36654;DHT22;22650;49.350;20.898;2024-01-30T07:40:49;-1.10;99.90
36654;DHT22;22650;49.350;20.898;2024-01-30T07:43:23;-1.00;99.90
36654;DHT22;22650;49.350;20.898;2024-01-30T07:45:58;-0.90;99.90
36654;DHT22;22650;49.350;20.898;2024-01-30T07:48:33;-0.90;99.90
36654;DHT22;22650;49.350;20.898;2024-01-30T07:51:07;-0.80;99.90
36654;DHT22;22650;49.350;20.898;2024-01-30T07:53:41;-0.70;99.90
36654;DHT22;22650;49.350;20.898;2024-01-30T07:56:14;-0.60;99.90
36654;DHT22;22650;49.350;20.898;2024-01-30T07:58:48;-0.60;99.90
36654;DHT22;22650;49.350;20.898;2024-01-30T08:01:24;-0.50;99.90
36654;DHT22;22650;49.350;20.898;2024-01-30T08:03:57;-0.40;99.90
36654;DHT22;22650;49.350;20.898;2024-01-30T08:06:31;-0.40;99.90
36654;DHT22;22650;49.350;20.898;2024-01-30T08:09:04;-0.40;99.90
36654;DHT22;22650;49.350;20.898;2024-01-30T08:11:39;-0.30;99.90
36654;DHT22;22650;49.350;20.898;2024-01-30T08:14:13;-0.30;99.90
36654;DHT22;22650;49.350;20.898;2024-01-30T08:16:48;-0.20;99.90
36654;DHT22;22650;49.350;20.898;2024-01-30T08:19:22;-0.20;99.90
36654;DHT22;22650;49.350;20.898;2024-01-30T08:21:55;-0.10;99.90
36654;DHT22;22650;49.350;20.898;2024-01-30T08:24:29;0.00;99.90
36654;DHT22;22650;49.350;20.898;2024-01-30T08:27:03;0.10;99.90
36654;DHT22;22650;49.350;20.898;2024-01-30T08:29:37;0.10;99.90
36654;DHT22;22650;49.350;20.898;2024-01-30T08:32:12;0.20;99.90
36654;DHT22;22650;49.350;20.898;2024-01-30T08:34:46;0.30;99.90
36654;DHT22;22650;49.350;20.898;2024-01-30T08:37:19;0.40;99.90
36654;DHT22;22650;49.350;20.898;2024-01-30T08:39:53;0.60;99.90
36654;DHT22;22650;49.350;20.898;2024-01-30T08:42:27;0.80;99.90
36654;DHT22;22650;49.350;20.898;2024-01-30T08:45:00;1.00;99.90
36654;DHT22;22650;49.350;20.898;2024-01-30T08:47:36;1.30;99.90
36654;DHT22;22650;49.350;20.898;2024-01-30T08:50:10;1.50;99.90
36654;DHT22;22650;49.350;20.898;2024-01-30T08:52:44;1.70;99.90
36654;DHT22;22650;49.350;20.898;2024-01-30T08:55:19;1.90;99.90
36654;DHT22;22650;49.350;20.898;2024-01-30T08:57:53;2.10;99.90
36654;DHT22;22650;49.350;20.898;2024-01-30T09:00:27;2.30;99.90
36654;DHT22;22650;49.350;20.898;2024-01-30T09:03:02;2.50;99.90
36654;DHT22;22650;49.350;20.898;2024-01-30T09:05:36;2.70;99.90
36654;DHT22;22650;49.350;20.898;2024-01-30T09:08:10;2.90;99.90
36654;DHT22;22650;49.350;20.898;2024-01-30T09:10:43;3.10;99.90
36654;DHT22;22650;49.350;20.898;2024-01-30T09:13:17;3.40;99.90
36654;DHT22;22650;49.350;20.898;2024-01-30T09:15:52;3.50;99.90
36654;DHT22;22650;49.350;20.898;2024-01-30T09:18:27;3.70;99.90
36654;DHT22;22650;49.350;20.898;2024-01-30T09:21:01;3.90;99.90
36654;DHT22;22650;49.350;20.898;2024-01-30T09:23:34;4.10;99.90
36654;DHT22;22650;49.350;20.898;2024-01-30T09:26:08;4.20;99.90
36654;DHT22;22650;49.350;20.898;2024-01-30T09:28:41;4.30;99.90
36654;DHT22;22650;49.350;20.898;2024-01-30T09:31:15;4.40;99.90
36654;DHT22;22650;49.350;20.898;2024-01-30T09:33:52;4.50;99.90
36654;DHT22;22650;49.350;20.898;2024-01-30T09:36:27;4.60;99.90
36654;DHT22;22650;49.350;20.898;2024-01-30T09:39:00;4.70;99.90
36654;DHT22;22650;49.350;20.898;2024-01-30T09:41:40;4.90;99.90
36654;DHT22;22650;49.350;20.898;2024-01-30T09:44:16;5.00;99.90
36654;DHT22;22650;49.350;20.898;2024-01-30T09:46:51;5.00;99.90
36654;DHT22;22650;49.350;20.898;2024-01-30T09:49:26;5.10;99.90
36654;DHT22;22650;49.350;20.898;2024-01-30T09:52:00;5.10;99.90
36654;DHT22;22650;49.350;20.898;2024-01-30T09:54:34;5.20;99.90
36654;DHT22;22650;49.350;20.898;2024-01-30T09:57:08;5.30;99.90
36654;DHT22;22650;49.350;20.898;2024-01-30T09:59:42;5.50;99.90
36654;DHT22;22650;49.350;20.898;2024-01-30T10:02:17;5.60;99.90
36654;DHT22;22650;49.350;20.898;2024-01-30T10:04:52;5.80;99.90
36654;DHT22;22650;49.350;20.898;2024-01-30T10:07:26;5.90;99.90
36654;DHT22;22650;49.350;20.898;2024-01-30T10:10:00;6.00;99.90
36654;DHT22;22650;49.350;20.898;2024-01-30T10:12:34;6.10;99.90
36654;DHT22;22650;49.350;20.898;2024-01-30T10:15:09;6.20;99.90
36654;DHT22;22650;49.350;20.898;2024-01-30T10:17:43;6.30;99.90
36654;DHT22;22650;49.350;20.898;2024-01-30T10:20:19;6.40;99.90
36654;DHT22;22650;49.350;20.898;2024-01-30T10:22:55;6.50;99.90
36654;DHT22;22650;49.350;20.898;2024-01-30T10:25:31;6.60;99.90
36654;DHT22;22650;49.350;20.898;2024-01-30T10:28:05;6.80;99.90
36654;DHT22;22650;49.350;20.898;2024-01-30T10:30:39;7.00;99.90
36654;DHT22;22650;49.350;20.898;2024-01-30T10:33:13;7.20;99.90
36654;DHT22;22650;49.350;20.898;2024-01-30T10:35:49;7.20;99.90
36654;DHT22;22650;49.350;20.898;2024-01-30T10:38:25;7.40;99.90
36654;DHT22;22650;49.350;20.898;2024-01-30T10:41:01;7.60;99.60
36654;DHT22;22650;49.350;20.898;2024-01-30T10:43:40;7.80;98.60
36654;DHT22;22650;49.350;20.898;2024-01-30T10:46:18;8.10;97.40
36654;DHT22;22650;49.350;20.898;2024-01-30T10:48:57;8.20;95.30
36654;DHT22;22650;49.350;20.898;2024-01-30T10:51:32;8.40;94.60
36654;DHT22;22650;49.350;20.898;2024-01-30T10:54:08;8.50;94.30
36654;DHT22;22650;49.350;20.898;2024-01-30T10:56:42;8.70;94.50
36654;DHT22;22650;49.350;20.898;2024-01-30T10:59:16;8.80;91.20
36654;DHT22;22650;49.350;20.898;2024-01-30T11:01:51;8.90;92.60
36654;DHT22;22650;49.350;20.898;2024-01-30T11:04:25;9.10;93.10
36654;DHT22;22650;49.350;20.898;2024-01-30T11:07:00;9.20;92.10
36654;DHT22;22650;49.350;20.898;2024-01-30T11:09:36;9.20;91.40
36654;DHT22;22650;49.350;20.898;2024-01-30T11:12:12;9.30;90.80
36654;DHT22;22650;49.350;20.898;2024-01-30T11:14:46;9.30;90.40
36654;DHT22;22650;49.350;20.898;2024-01-30T11:17:20;9.30;90.60
36654;DHT22;22650;49.350;20.898;2024-01-30T11:19:53;9.40;88.90
36654;DHT22;22650;49.350;20.898;2024-01-30T11:22:30;9.40;88.50
36654;DHT22;22650;49.350;20.898;2024-01-30T11:25:04;9.50;89.70
36654;DHT22;22650;49.350;20.898;2024-01-30T11:27:41;9.70;89.60
36654;DHT22;22650;49.350;20.898;2024-01-30T11:30:22;9.80;88.30
36654;DHT22;22650;49.350;20.898;2024-01-30T11:33:00;10.00;86.70
36654;DHT22;22650;49.350;20.898;2024-01-30T11:35:39;10.10;85.20
36654;DHT22;22650;49.350;20.898;2024-01-30T11:38:15;10.20;84.70
36654;DHT22;22650;49.350;20.898;2024-01-30T11:40:50;10.30;84.30
36654;DHT22;22650;49.350;20.898;2024-01-30T11:43:24;10.40;83.60
36654;DHT22;22650;49.350;20.898;2024-01-30T11:45:58;10.50;83.40
36654;DHT22;22650;49.350;20.898;2024-01-30T11:48:32;10.50;82.80
36654;DHT22;22650;49.350;20.898;2024-01-30T11:51:06;10.50;81.60
36654;DHT22;22650;49.350;20.898;2024-01-30T11:53:41;10.50;82.60
36654;DHT22;22650;49.350;20.898;2024-01-30T11:56:15;10.60;81.90
36654;DHT22;22650;49.350;20.898;2024-01-30T11:58:49;10.60;81.80
36654;DHT22;22650;49.350;20.898;2024-01-30T12:01:24;10.70;82.40
36654;DHT22;22650;49.350;20.898;2024-01-30T12:04:02;10.80;82.40
36654;DHT22;22650;49.350;20.898;2024-01-30T12:06:41;11.00;81.20
36654;DHT22;22650;49.350;20.898;2024-01-30T12:09:16;11.10;80.70
36654;DHT22;22650;49.350;20.898;2024-01-30T12:11:49;11.20;80.40
36654;DHT22;22650;49.350;20.898;2024-01-30T12:14:23;11.40;80.00
36654;DHT22;22650;49.350;20.898;2024-01-30T12:16:57;11.40;80.10
36654;DHT22;22650;49.350;20.898;2024-01-30T12:19:30;11.40;78.20
36654;DHT22;22650;49.350;20.898;2024-01-30T12:22:05;11.50;78.50
36654;DHT22;22650;49.350;20.898;2024-01-30T12:24:41;11.60;78.60
36654;DHT22;22650;49.350;20.898;2024-01-30T12:27:15;11.70;74.80
36654;DHT22;22650;49.350;20.898;2024-01-30T12:29:55;11.60;77.10
36654;DHT22;22650;49.350;20.898;2024-01-30T12:32:29;11.70;76.90
36654;DHT22;22650;49.350;20.898;2024-01-30T12:35:04;11.80;76.80
36654;DHT22;22650;49.350;20.898;2024-01-30T12:37:41;11.80;76.10
36654;DHT22;22650;49.350;20.898;2024-01-30T12:40:16;11.90;77.00
36654;DHT22;22650;49.350;20.898;2024-01-30T12:42:52;12.00;76.50
36654;DHT22;22650;49.350;20.898;2024-01-30T12:45:25;12.00;74.70
36654;DHT22;22650;49.350;20.898;2024-01-30T12:47:59;12.00;74.20
36654;DHT22;22650;49.350;20.898;2024-01-30T12:50:33;11.90;74.30
36654;DHT22;22650;49.350;20.898;2024-01-30T12:53:07;12.00;75.40
36654;DHT22;22650;49.350;20.898;2024-01-30T12:55:42;12.00;75.00
36654;DHT22;22650;49.350;20.898;2024-01-30T12:58:17;12.00;74.80
36654;DHT22;22650;49.350;20.898;2024-01-30T13:00:50;12.00;74.20
36654;DHT22;22650;49.350;20.898;2024-01-30T13:03:24;12.00;74.20
36654;DHT22;22650;49.350;20.898;2024-01-30T13:05:58;12.00;74.00
36654;DHT22;22650;49.350;20.898;2024-01-30T13:08:32;12.10;74.10
36654;DHT22;22650;49.350;20.898;2024-01-30T13:11:06;12.10;74.10
36654;DHT22;22650;49.350;20.898;2024-01-30T13:13:51;12.10;73.30
36654;DHT22;22650;49.350;20.898;2024-01-30T13:16:25;12.00;73.90
36654;DHT22;22650;49.350;20.898;2024-01-30T13:18:58;12.00;74.10
36654;DHT22;22650;49.350;20.898;2024-01-30T13:21:34;11.90;73.20
36654;DHT22;22650;49.350;20.898;2024-01-30T13:24:07;11.80;73.50
36654;DHT22;22650;49.350;20.898;2024-01-30T13:26:44;11.70;72.30
36654;DHT22;22650;49.350;20.898;2024-01-30T13:29:18;11.60;72.20
36654;DHT22;22650;49.350;20.898;2024-01-30T13:31:52;11.50;72.00
36654;DHT22;22650;49.350;20.898;2024-01-30T13:34:25;11.20;73.10
36654;DHT22;22650;49.350;20.898;2024-01-30T13:36:59;11.00;72.30
36654;DHT22;22650;49.350;20.898;2024-01-30T13:39:33;10.90;73.00
36654;DHT22;22650;49.350;20.898;2024-01-30T13:42:12;10.90;73.70
36654;DHT22;22650;49.350;20.898;2024-01-30T13:44:46;10.70;74.00
36654;DHT22;22650;49.350;20.898;2024-01-30T13:47:20;10.50;74.20
36654;DHT22;22650;49.350;20.898;2024-01-30T13:49:54;10.30;74.00
36654;DHT22;22650;49.350;20.898;2024-01-30T13:52:27;10.20;74.70
36654;DHT22;22650;49.350;20.898;2024-01-30T13:55:09;10.10;74.60
36654;DHT22;22650;49.350;20.898;2024-01-30T13:57:46;10.00;76.30
36654;DHT22;22650;49.350;20.898;2024-01-30T14:00:23;9.90;75.30
36654;DHT22;22650;49.350;20.898;2024-01-30T14:02:57;9.80;76.00
36654;DHT22;22650;49.350;20.898;2024-01-30T14:05:31;9.70;75.10
36654;DHT22;22650;49.350;20.898;2024-01-30T14:08:05;9.60;76.80
36654;DHT22;22650;49.350;20.898;2024-01-30T14:10:40;9.50;77.40
36654;DHT22;22650;49.350;20.898;2024-01-30T14:13:15;9.40;77.60
36654;DHT22;22650;49.350;20.898;2024-01-30T14:15:49;9.20;76.70
36654;DHT22;22650;49.350;20.898;2024-01-30T14:18:23;9.10;78.10
36654;DHT22;22650;49.350;20.898;2024-01-30T14:20:58;9.00;78.60
36654;DHT22;22650;49.350;20.898;2024-01-30T14:23:32;8.90;78.80
36654;DHT22;22650;49.350;20.898;2024-01-30T14:26:09;8.80;79.10
36654;DHT22;22650;49.350;20.898;2024-01-30T14:28:46;8.80;79.80
36654;DHT22;22650;49.350;20.898;2024-01-30T14:31:20;8.60;80.80
36654;DHT22;22650;49.350;20.898;2024-01-30T14:33:55;8.50;80.90
36654;DHT22;22650;49.350;20.898;2024-01-30T14:36:29;8.40;81.20
36654;DHT22;22650;49.350;20.898;2024-01-30T14:39:02;8.30;81.70
36654;DHT22;22650;49.350;20.898;2024-01-30T14:41:36;8.30;82.60
36654;DHT22;22650;49.350;20.898;2024-01-30T14:44:11;8.20;82.50
36654;DHT22;22650;49.350;20.898;2024-01-30T14:46:46;8.10;82.50
36654;DHT22;22650;49.350;20.898;2024-01-30T14:49:19;8.00;83.10
36654;DHT22;22650;49.350;20.898;2024-01-30T14:51:53;7.80;83.50
36654;DHT22;22650;49.350;20.898;2024-01-30T14:54:27;7.60;84.10
36654;DHT22;22650;49.350;20.898;2024-01-30T14:57:01;7.40;85.20
36654;DHT22;22650;49.350;20.898;2024-01-30T14:59:36;7.20;86.50
36654;DHT22;22650;49.350;20.898;2024-01-30T15:02:09;7.00;87.30
36654;DHT22;22650;49.350;20.898;2024-01-30T15:04:43;6.80;89.10
36654;DHT22;22650;49.350;20.898;2024-01-30T15:07:17;6.70;89.20
36654;DHT22;22650;49.350;20.898;2024-01-30T15:10:04;6.40;90.30
36654;DHT22;22650;49.350;20.898;2024-01-30T15:12:39;6.30;90.80
36654;DHT22;22650;49.350;20.898;2024-01-30T15:15:14;5.90;92.70
36654;DHT22;22650;49.350;20.898;2024-01-30T15:17:47;5.70;95.60
36654;DHT22;22650;49.350;20.898;2024-01-30T15:20:21;5.50;99.00
36654;DHT22;22650;49.350;20.898;2024-01-30T15:22:55;5.30;98.80
36654;DHT22;22650;49.350;20.898;2024-01-30T15:25:28;5.20;99.90
36654;DHT22;22650;49.350;20.898;2024-01-30T15:28:33;4.90;99.90
36654;DHT22;22650;49.350;20.898;2024-01-30T15:31:27;4.80;99.90
36654;DHT22;22650;49.350;20.898;2024-01-30T15:34:01;4.60;99.90
36654;DHT22;22650;49.350;20.898;2024-01-30T15:36:35;4.40;99.90
36654;DHT22;22650;49.350;20.898;2024-01-30T15:39:09;4.30;99.90
36654;DHT22;22650;49.350;20.898;2024-01-30T15:41:43;4.20;99.90
36654;DHT22;22650;49.350;20.898;2024-01-30T15:44:17;4.10;99.90
36654;DHT22;22650;49.350;20.898;2024-01-30T15:46:52;3.90;99.90
36654;DHT22;22650;49.350;20.898;2024-01-30T15:49:25;3.70;99.90
36654;DHT22;22650;49.350;20.898;2024-01-30T15:51:59;3.60;99.90
36654;DHT22;22650;49.350;20.898;2024-01-30T15:59:10;3.30;99.90
36654;DHT22;22650;49.350;20.898;2024-01-30T16:01:43;3.10;99.90
36654;DHT22;22650;49.350;20.898;2024-01-30T16:04:22;3.00;99.90
36654;DHT22;22650;49.350;20.898;2024-01-30T16:06:57;2.80;99.90
36654;DHT22;22650;49.350;20.898;2024-01-30T16:19:30;2.30;99.90